sensor_id;sensor_type;location;lat;lon;timestamp;P1;durP1;ratioP1;P2;durP2;ratioP2
3016;SDS011;1518;52.408;13.060;2023-03-24T00:01:47;1.30;;;1.20;;
3016;SDS011;1518;52.408;13.060;2023-03-24T00:04:35;1.30;;;1.20;;
3016;SDS011;1518;52.408;13.060;2023-03-24T00:07:28;1.65;;;1.40;;
3016;SDS011;1518;52.408;13.060;2023-03-24T00:10:16;2.10;;;1.50;;
3016;SDS011;1518;52.408;13.060;2023-03-24T00:13:06;1.13;;;1.13;;
3016;SDS011;1518;52.408;13.060;2023-03-24T00:15:54;1.40;;;1.30;;
3016;SDS011;1518;52.408;13.060;2023-03-24T00:18:44;1.20;;;1.10;;
3016;SDS011;1518;52.408;13.060;2023-03-24T00:21:39;1.50;;;1.40;;
3016;SDS011;1518;52.408;13.060;2023-03-24T00:24:28;2.38;;;1.40;;
3016;SDS011;1518;52.408;13.060;2023-03-24T00:27:16;1.70;;;1.60;;
3016;SDS011;1518;52.408;13.060;2023-03-24T00:30:05;1.17;;;1.13;;
3016;SDS011;1518;52.408;13.060;2023-03-24T00:32:55;1.30;;;1.20;;
3016;SDS011;1518;52.408;13.060;2023-03-24T00:35:45;1.00;;;0.90;;
3016;SDS011;1518;52.408;13.060;2023-03-24T00:38:34;1.40;;;1.30;;
3016;SDS011;1518;52.408;13.060;2023-03-24T00:41:22;1.30;;;1.20;;
3016;SDS011;1518;52.408;13.060;2023-03-24T00:44:13;1.77;;;1.50;;
3016;SDS011;1518;52.408;13.060;2023-03-24T00:47:04;1.30;;;1.20;;
3016;SDS011;1518;52.408;13.060;2023-03-24T00:49:52;1.60;;;1.45;;
3016;SDS011;1518;52.408;13.060;2023-03-24T00:52:45;1.40;;;1.30;;
3016;SDS011;1518;52.408;13.060;2023-03-24T00:55:34;1.50;;;1.40;;
3016;SDS011;1518;52.408;13.060;2023-03-24T00:58:24;3.00;;;1.50;;
3016;SDS011;1518;52.408;13.060;2023-03-24T01:01:15;2.15;;;1.95;;
3016;SDS011;1518;52.408;13.060;2023-03-24T01:04:03;1.27;;;1.17;;
3016;SDS011;1518;52.408;13.060;2023-03-24T01:06:52;1.00;;;1.00;;
3016;SDS011;1518;52.408;13.060;2023-03-24T01:09:45;1.67;;;1.30;;
3016;SDS011;1518;52.408;13.060;2023-03-24T01:12:37;1.88;;;1.30;;
3016;SDS011;1518;52.408;13.060;2023-03-24T01:15:26;1.00;;;1.00;;
3016;SDS011;1518;52.408;13.060;2023-03-24T01:18:16;1.10;;;1.00;;
3016;SDS011;1518;52.408;13.060;2023-03-24T01:21:04;1.40;;;1.30;;
3016;SDS011;1518;52.408;13.060;2023-03-24T01:23:53;1.90;;;1.00;;
3016;SDS011;1518;52.408;13.060;2023-03-24T01:26:42;2.90;;;1.40;;
3016;SDS011;1518;52.408;13.060;2023-03-24T01:29:31;1.60;;;1.50;;
3016;SDS011;1518;52.408;13.060;2023-03-24T01:32:19;1.20;;;1.10;;
3016;SDS011;1518;52.408;13.060;2023-03-24T01:35:07;1.30;;;1.20;;
3016;SDS011;1518;52.408;13.060;2023-03-24T01:37:57;1.15;;;1.10;;
3016;SDS011;1518;52.408;13.060;2023-03-24T01:40:45;1.48;;;1.30;;
3016;SDS011;1518;52.408;13.060;2023-03-24T01:43:35;1.30;;;1.20;;
3016;SDS011;1518;52.408;13.060;2023-03-24T01:46:23;1.10;;;1.00;;
3016;SDS011;1518;52.408;13.060;2023-03-24T01:49:12;1.27;;;1.17;;
3016;SDS011;1518;52.408;13.060;2023-03-24T01:52:00;1.33;;;1.23;;
3016;SDS011;1518;52.408;13.060;2023-03-24T01:54:51;1.23;;;1.13;;
3016;SDS011;1518;52.408;13.060;2023-03-24T01:57:42;1.08;;;1.00;;
3016;SDS011;1518;52.408;13.060;2023-03-24T02:00:33;2.15;;;1.30;;
3016;SDS011;1518;52.408;13.060;2023-03-24T02:03:24;1.30;;;1.20;;
3016;SDS011;1518;52.408;13.060;2023-03-24T02:06:15;2.35;;;1.20;;
3016;SDS011;1518;52.408;13.060;2023-03-24T02:09:05;1.20;;;1.10;;
3016;SDS011;1518;52.408;13.060;2023-03-24T02:11:55;1.00;;;0.90;;
3016;SDS011;1518;52.408;13.060;2023-03-24T02:14:43;1.80;;;1.33;;
3016;SDS011;1518;52.408;13.060;2023-03-24T02:17:49;1.35;;;1.10;;
3016;SDS011;1518;52.408;13.060;2023-03-24T02:20:47;1.00;;;1.00;;
3016;SDS011;1518;52.408;13.060;2023-03-24T02:24:07;1.38;;;1.10;;
3016;SDS011;1518;52.408;13.060;2023-03-24T02:27:17;1.38;;;1.27;;
3016;SDS011;1518;52.408;13.060;2023-03-24T02:30:21;1.50;;;1.40;;
3016;SDS011;1518;52.408;13.060;2023-03-24T02:33:26;1.20;;;1.20;;
3016;SDS011;1518;52.408;13.060;2023-03-24T02:36:38;1.33;;;1.23;;
3016;SDS011;1518;52.408;13.060;2023-03-24T02:39:55;1.98;;;1.52;;
3016;SDS011;1518;52.408;13.060;2023-03-24T02:43:17;1.42;;;1.20;;
3016;SDS011;1518;52.408;13.060;2023-03-24T02:46:11;1.50;;;1.40;;
3016;SDS011;1518;52.408;13.060;2023-03-24T02:49:08;1.15;;;1.10;;
3016;SDS011;1518;52.408;13.060;2023-03-24T02:52:05;1.30;;;1.20;;
3016;SDS011;1518;52.408;13.060;2023-03-24T02:55:00;1.67;;;1.27;;
3016;SDS011;1518;52.408;13.060;2023-03-24T02:57:51;1.40;;;1.30;;
3016;SDS011;1518;52.408;13.060;2023-03-24T03:00:43;1.25;;;1.20;;
3016;SDS011;1518;52.408;13.060;2023-03-24T03:03:37;1.98;;;1.33;;
3016;SDS011;1518;52.408;13.060;2023-03-24T03:06:28;1.60;;;1.00;;
3016;SDS011;1518;52.408;13.060;2023-03-24T03:09:18;1.30;;;1.20;;
3016;SDS011;1518;52.408;13.060;2023-03-24T03:12:10;1.38;;;1.27;;
3016;SDS011;1518;52.408;13.060;2023-03-24T03:15:01;1.45;;;1.23;;
3016;SDS011;1518;52.408;13.060;2023-03-24T03:17:53;1.00;;;1.00;;
3016;SDS011;1518;52.408;13.060;2023-03-24T03:20:49;1.40;;;1.27;;
3016;SDS011;1518;52.408;13.060;2023-03-24T03:23:41;1.42;;;1.33;;
3016;SDS011;1518;52.408;13.060;2023-03-24T03:26:33;1.70;;;1.40;;
3016;SDS011;1518;52.408;13.060;2023-03-24T03:29:23;1.45;;;1.25;;
3016;SDS011;1518;52.408;13.060;2023-03-24T03:32:16;1.48;;;1.15;;
3016;SDS011;1518;52.408;13.060;2023-03-24T03:35:11;1.42;;;1.30;;
3016;SDS011;1518;52.408;13.060;2023-03-24T03:38:05;1.10;;;1.00;;
3016;SDS011;1518;52.408;13.060;2023-03-24T03:40:59;1.48;;;1.00;;
3016;SDS011;1518;52.408;13.060;2023-03-24T03:43:51;1.63;;;1.45;;
3016;SDS011;1518;52.408;13.060;2023-03-24T03:46:40;1.50;;;1.40;;
3016;SDS011;1518;52.408;13.060;2023-03-24T03:49:29;2.03;;;1.35;;
3016;SDS011;1518;52.408;13.060;2023-03-24T03:52:18;1.95;;;1.38;;
3016;SDS011;1518;52.408;13.060;2023-03-24T03:55:07;1.20;;;1.10;;
3016;SDS011;1518;52.408;13.060;2023-03-24T03:57:56;1.40;;;1.27;;
3016;SDS011;1518;52.408;13.060;2023-03-24T04:00:44;1.80;;;1.40;;
3016;SDS011;1518;52.408;13.060;2023-03-24T04:03:44;1.70;;;1.20;;
3016;SDS011;1518;52.408;13.060;2023-03-24T04:06:56;1.65;;;1.42;;
3016;SDS011;1518;52.408;13.060;2023-03-24T04:09:57;1.40;;;1.25;;
3016;SDS011;1518;52.408;13.060;2023-03-24T04:12:58;1.40;;;1.30;;
3016;SDS011;1518;52.408;13.060;2023-03-24T04:15:56;1.30;;;1.20;;
3016;SDS011;1518;52.408;13.060;2023-03-24T04:18:53;1.20;;;1.10;;
3016;SDS011;1518;52.408;13.060;2023-03-24T04:21:59;1.55;;;1.45;;
3016;SDS011;1518;52.408;13.060;2023-03-24T04:24:57;1.60;;;1.50;;
3016;SDS011;1518;52.408;13.060;2023-03-24T04:27:51;1.73;;;1.35;;
3016;SDS011;1518;52.408;13.060;2023-03-24T04:30:47;1.55;;;1.20;;
3016;SDS011;1518;52.408;13.060;2023-03-24T04:33:42;1.50;;;1.30;;
3016;SDS011;1518;52.408;13.060;2023-03-24T04:36:37;2.40;;;1.70;;
3016;SDS011;1518;52.408;13.060;2023-03-24T04:39:32;2.22;;;1.75;;
3016;SDS011;1518;52.408;13.060;2023-03-24T04:42:26;2.40;;;2.20;;
3016;SDS011;1518;52.408;13.060;2023-03-24T04:45:18;1.40;;;1.30;;
3016;SDS011;1518;52.408;13.060;2023-03-24T04:48:10;2.58;;;1.52;;
3016;SDS011;1518;52.408;13.060;2023-03-24T04:51:00;1.98;;;1.52;;
3016;SDS011;1518;52.408;13.060;2023-03-24T04:53:51;1.65;;;1.48;;
3016;SDS011;1518;52.408;13.060;2023-03-24T04:56:39;1.88;;;1.67;;
3016;SDS011;1518;52.408;13.060;2023-03-24T04:59:31;1.50;;;1.40;;
3016;SDS011;1518;52.408;13.060;2023-03-24T05:02:20;1.40;;;1.30;;
3016;SDS011;1518;52.408;13.060;2023-03-24T05:05:08;1.50;;;1.33;;
3016;SDS011;1518;52.408;13.060;2023-03-24T05:07:57;2.85;;;1.83;;
3016;SDS011;1518;52.408;13.060;2023-03-24T05:10:47;1.33;;;1.23;;
3016;SDS011;1518;52.408;13.060;2023-03-24T05:13:35;1.38;;;1.27;;
3016;SDS011;1518;52.408;13.060;2023-03-24T05:16:23;1.48;;;1.38;;
3016;SDS011;1518;52.408;13.060;2023-03-24T05:19:11;1.67;;;1.58;;
3016;SDS011;1518;52.408;13.060;2023-03-24T05:21:59;1.98;;;1.48;;
3016;SDS011;1518;52.408;13.060;2023-03-24T05:24:47;1.52;;;1.40;;
3016;SDS011;1518;52.408;13.060;2023-03-24T05:27:37;1.65;;;1.55;;
3016;SDS011;1518;52.408;13.060;2023-03-24T05:30:25;1.40;;;1.30;;
3016;SDS011;1518;52.408;13.060;2023-03-24T05:33:13;2.20;;;1.55;;
3016;SDS011;1518;52.408;13.060;2023-03-24T05:36:02;1.45;;;1.35;;
3016;SDS011;1518;52.408;13.060;2023-03-24T05:38:50;1.52;;;1.17;;
3016;SDS011;1518;52.408;13.060;2023-03-24T05:41:38;1.20;;;1.10;;
3016;SDS011;1518;52.408;13.060;2023-03-24T05:44:27;1.63;;;1.52;;
3016;SDS011;1518;52.408;13.060;2023-03-24T05:47:16;1.70;;;1.48;;
3016;SDS011;1518;52.408;13.060;2023-03-24T05:50:05;2.85;;;1.70;;
3016;SDS011;1518;52.408;13.060;2023-03-24T05:52:54;1.20;;;1.10;;
3016;SDS011;1518;52.408;13.060;2023-03-24T05:55:43;1.40;;;1.30;;
3016;SDS011;1518;52.408;13.060;2023-03-24T05:58:32;2.35;;;1.50;;
3016;SDS011;1518;52.408;13.060;2023-03-24T06:01:22;1.40;;;1.30;;
3016;SDS011;1518;52.408;13.060;2023-03-24T06:04:10;1.40;;;1.30;;
3016;SDS011;1518;52.408;13.060;2023-03-24T06:06:59;2.10;;;1.38;;
3016;SDS011;1518;52.408;13.060;2023-03-24T06:09:48;2.42;;;1.70;;
3016;SDS011;1518;52.408;13.060;2023-03-24T06:12:36;1.58;;;1.48;;
3016;SDS011;1518;52.408;13.060;2023-03-24T06:15:24;1.42;;;1.33;;
3016;SDS011;1518;52.408;13.060;2023-03-24T06:18:15;2.83;;;2.53;;
3016;SDS011;1518;52.408;13.060;2023-03-24T06:21:03;3.80;;;3.50;;
3016;SDS011;1518;52.408;13.060;2023-03-24T06:23:51;3.10;;;2.80;;
3016;SDS011;1518;52.408;13.060;2023-03-24T06:26:41;6.47;;;3.72;;
3016;SDS011;1518;52.408;13.060;2023-03-24T06:29:30;13.75;;;6.00;;
3016;SDS011;1518;52.408;13.060;2023-03-24T06:32:18;10.48;;;5.10;;
3016;SDS011;1518;52.408;13.060;2023-03-24T06:35:08;5.60;;;4.18;;
3016;SDS011;1518;52.408;13.060;2023-03-24T06:37:56;11.32;;;2.90;;
3016;SDS011;1518;52.408;13.060;2023-03-24T06:40:45;3.40;;;2.33;;
3016;SDS011;1518;52.408;13.060;2023-03-24T06:43:33;4.85;;;1.98;;
3016;SDS011;1518;52.408;13.060;2023-03-24T06:46:22;2.50;;;2.05;;
3016;SDS011;1518;52.408;13.060;2023-03-24T06:49:11;6.25;;;2.88;;
3016;SDS011;1518;52.408;13.060;2023-03-24T06:52:00;1.95;;;1.75;;
3016;SDS011;1518;52.408;13.060;2023-03-24T06:54:48;1.30;;;1.10;;
3016;SDS011;1518;52.408;13.060;2023-03-24T06:57:36;1.20;;;1.10;;
3016;SDS011;1518;52.408;13.060;2023-03-24T07:00:24;1.45;;;1.35;;
3016;SDS011;1518;52.408;13.060;2023-03-24T07:03:14;2.75;;;1.50;;
3016;SDS011;1518;52.408;13.060;2023-03-24T07:06:03;1.75;;;1.52;;
3016;SDS011;1518;52.408;13.060;2023-03-24T07:08:54;4.18;;;1.95;;
3016;SDS011;1518;52.408;13.060;2023-03-24T07:11:42;7.38;;;4.13;;
3016;SDS011;1518;52.408;13.060;2023-03-24T07:14:30;11.48;;;5.20;;
3016;SDS011;1518;52.408;13.060;2023-03-24T07:17:18;4.72;;;2.85;;
3016;SDS011;1518;52.408;13.060;2023-03-24T07:20:09;2.72;;;2.42;;
3016;SDS011;1518;52.408;13.060;2023-03-24T07:22:57;6.53;;;2.90;;
3016;SDS011;1518;52.408;13.060;2023-03-24T07:25:47;459.25;;;77.28;;
3016;SDS011;1518;52.408;13.060;2023-03-24T07:28:35;2250.00;;;931.67;;
3016;SDS011;1518;52.408;13.060;2023-03-24T07:31:23;2250.00;;;774.03;;
3016;SDS011;1518;52.408;13.060;2023-03-24T07:34:11;2250.00;;;539.33;;
3016;SDS011;1518;52.408;13.060;2023-03-24T07:36:59;1745.90;;;399.58;;
3016;SDS011;1518;52.408;13.060;2023-03-24T07:39:47;878.60;;;202.82;;
3016;SDS011;1518;52.408;13.060;2023-03-24T07:42:37;678.15;;;127.53;;
3016;SDS011;1518;52.408;13.060;2023-03-24T07:45:25;519.75;;;90.22;;
3016;SDS011;1518;52.408;13.060;2023-03-24T07:48:14;312.33;;;49.47;;
3016;SDS011;1518;52.408;13.060;2023-03-24T07:51:02;217.20;;;34.33;;
3016;SDS011;1518;52.408;13.060;2023-03-24T07:53:50;154.43;;;27.60;;
3016;SDS011;1518;52.408;13.060;2023-03-24T07:56:38;150.70;;;21.30;;
3016;SDS011;1518;52.408;13.060;2023-03-24T07:59:28;106.97;;;16.83;;
3016;SDS011;1518;52.408;13.060;2023-03-24T08:02:17;87.72;;;15.90;;
3016;SDS011;1518;52.408;13.060;2023-03-24T08:05:06;115.57;;;17.85;;
3016;SDS011;1518;52.408;13.060;2023-03-24T08:07:59;76.57;;;16.35;;
3016;SDS011;1518;52.408;13.060;2023-03-24T08:10:47;106.53;;;18.08;;
3016;SDS011;1518;52.408;13.060;2023-03-24T08:13:36;94.38;;;17.30;;
3016;SDS011;1518;52.408;13.060;2023-03-24T08:16:26;99.45;;;17.13;;
3016;SDS011;1518;52.408;13.060;2023-03-24T08:19:14;74.10;;;12.68;;
3016;SDS011;1518;52.408;13.060;2023-03-24T08:22:02;75.63;;;13.27;;
3016;SDS011;1518;52.408;13.060;2023-03-24T08:24:50;63.08;;;13.18;;
3016;SDS011;1518;52.408;13.060;2023-03-24T08:27:38;48.05;;;9.48;;
3016;SDS011;1518;52.408;13.060;2023-03-24T08:30:30;63.20;;;10.85;;
3016;SDS011;1518;52.408;13.060;2023-03-24T08:33:19;228.13;;;25.05;;
3016;SDS011;1518;52.408;13.060;2023-03-24T08:36:08;340.05;;;40.80;;
3016;SDS011;1518;52.408;13.060;2023-03-24T08:38:56;237.07;;;29.13;;
3016;SDS011;1518;52.408;13.060;2023-03-24T08:41:46;110.45;;;16.52;;
3016;SDS011;1518;52.408;13.060;2023-03-24T08:44:35;82.78;;;15.68;;
3016;SDS011;1518;52.408;13.060;2023-03-24T08:47:23;73.63;;;11.07;;
3016;SDS011;1518;52.408;13.060;2023-03-24T08:50:13;52.25;;;8.93;;
3016;SDS011;1518;52.408;13.060;2023-03-24T08:53:01;81.03;;;12.45;;
3016;SDS011;1518;52.408;13.060;2023-03-24T08:55:50;48.22;;;10.70;;
3016;SDS011;1518;52.408;13.060;2023-03-24T08:58:38;32.28;;;7.28;;
3016;SDS011;1518;52.408;13.060;2023-03-24T09:01:26;46.05;;;9.05;;
3016;SDS011;1518;52.408;13.060;2023-03-24T09:04:15;53.55;;;10.27;;
3016;SDS011;1518;52.408;13.060;2023-03-24T09:07:04;41.70;;;6.70;;
3016;SDS011;1518;52.408;13.060;2023-03-24T09:09:52;43.17;;;7.45;;
3016;SDS011;1518;52.408;13.060;2023-03-24T09:12:41;48.67;;;8.43;;
3016;SDS011;1518;52.408;13.060;2023-03-24T09:15:30;40.67;;;8.18;;
3016;SDS011;1518;52.408;13.060;2023-03-24T09:18:20;37.47;;;9.10;;
3016;SDS011;1518;52.408;13.060;2023-03-24T09:21:08;53.53;;;13.18;;
3016;SDS011;1518;52.408;13.060;2023-03-24T09:23:58;46.13;;;8.50;;
3016;SDS011;1518;52.408;13.060;2023-03-24T09:26:46;31.50;;;6.43;;
3016;SDS011;1518;52.408;13.060;2023-03-24T09:29:35;43.40;;;8.80;;
3016;SDS011;1518;52.408;13.060;2023-03-24T09:32:24;47.08;;;10.30;;
3016;SDS011;1518;52.408;13.060;2023-03-24T09:35:12;49.35;;;10.57;;
3016;SDS011;1518;52.408;13.060;2023-03-24T09:38:01;68.15;;;11.50;;
3016;SDS011;1518;52.408;13.060;2023-03-24T09:40:52;125.65;;;16.05;;
3016;SDS011;1518;52.408;13.060;2023-03-24T09:43:43;81.32;;;14.68;;
3016;SDS011;1518;52.408;13.060;2023-03-24T09:46:38;74.50;;;11.20;;
3016;SDS011;1518;52.408;13.060;2023-03-24T09:49:35;102.95;;;15.00;;
3016;SDS011;1518;52.408;13.060;2023-03-24T09:52:26;39.80;;;10.02;;
3016;SDS011;1518;52.408;13.060;2023-03-24T09:55:20;25.38;;;6.05;;
3016;SDS011;1518;52.408;13.060;2023-03-24T09:58:12;31.48;;;6.35;;
3016;SDS011;1518;52.408;13.060;2023-03-24T10:01:00;35.63;;;6.93;;
3016;SDS011;1518;52.408;13.060;2023-03-24T10:03:48;17.23;;;4.90;;
3016;SDS011;1518;52.408;13.060;2023-03-24T10:06:37;24.70;;;5.53;;
3016;SDS011;1518;52.408;13.060;2023-03-24T10:09:27;27.23;;;6.68;;
3016;SDS011;1518;52.408;13.060;2023-03-24T10:12:20;20.85;;;4.07;;
3016;SDS011;1518;52.408;13.060;2023-03-24T10:15:22;17.40;;;4.78;;
3016;SDS011;1518;52.408;13.060;2023-03-24T10:18:27;17.52;;;5.18;;
3016;SDS011;1518;52.408;13.060;2023-03-24T10:21:20;31.45;;;7.60;;
3016;SDS011;1518;52.408;13.060;2023-03-24T10:24:13;32.88;;;8.95;;
3016;SDS011;1518;52.408;13.060;2023-03-24T10:27:10;29.58;;;6.10;;
3016;SDS011;1518;52.408;13.060;2023-03-24T10:30:05;27.27;;;4.95;;
3016;SDS011;1518;52.408;13.060;2023-03-24T10:33:02;15.98;;;4.35;;
3016;SDS011;1518;52.408;13.060;2023-03-24T10:35:53;18.40;;;4.97;;
3016;SDS011;1518;52.408;13.060;2023-03-24T10:38:47;21.23;;;6.60;;
3016;SDS011;1518;52.408;13.060;2023-03-24T10:41:35;20.73;;;5.38;;
3016;SDS011;1518;52.408;13.060;2023-03-24T10:44:24;15.30;;;4.90;;
3016;SDS011;1518;52.408;13.060;2023-03-24T10:47:13;13.27;;;4.20;;
3016;SDS011;1518;52.408;13.060;2023-03-24T10:50:06;12.98;;;4.75;;
3016;SDS011;1518;52.408;13.060;2023-03-24T10:53:00;28.40;;;5.45;;
3016;SDS011;1518;52.408;13.060;2023-03-24T10:55:56;16.65;;;5.22;;
3016;SDS011;1518;52.408;13.060;2023-03-24T10:58:45;15.40;;;4.60;;
3016;SDS011;1518;52.408;13.060;2023-03-24T11:01:34;19.55;;;4.22;;
3016;SDS011;1518;52.408;13.060;2023-03-24T11:04:24;24.08;;;5.18;;
3016;SDS011;1518;52.408;13.060;2023-03-24T11:07:15;17.25;;;3.65;;
3016;SDS011;1518;52.408;13.060;2023-03-24T11:10:09;17.17;;;4.72;;
3016;SDS011;1518;52.408;13.060;2023-03-24T11:13:02;17.42;;;4.97;;
3016;SDS011;1518;52.408;13.060;2023-03-24T11:15:54;15.60;;;4.90;;
3016;SDS011;1518;52.408;13.060;2023-03-24T11:18:54;21.52;;;4.50;;
3016;SDS011;1518;52.408;13.060;2023-03-24T11:21:43;288.15;;;25.38;;
3016;SDS011;1518;52.408;13.060;2023-03-24T11:24:35;46.55;;;7.68;;
3016;SDS011;1518;52.408;13.060;2023-03-24T11:27:24;40.95;;;8.13;;
3016;SDS011;1518;52.408;13.060;2023-03-24T11:30:14;20.70;;;4.80;;
3016;SDS011;1518;52.408;13.060;2023-03-24T11:33:02;15.05;;;4.22;;
3016;SDS011;1518;52.408;13.060;2023-03-24T11:35:53;17.13;;;3.85;;
3016;SDS011;1518;52.408;13.060;2023-03-24T11:38:57;14.45;;;4.45;;
3016;SDS011;1518;52.408;13.060;2023-03-24T11:41:52;10.55;;;4.32;;
3016;SDS011;1518;52.408;13.060;2023-03-24T11:44:48;15.20;;;4.75;;
3016;SDS011;1518;52.408;13.060;2023-03-24T11:47:38;11.90;;;4.03;;
3016;SDS011;1518;52.408;13.060;2023-03-24T11:50:27;18.20;;;4.05;;
3016;SDS011;1518;52.408;13.060;2023-03-24T11:53:17;12.52;;;4.05;;
3016;SDS011;1518;52.408;13.060;2023-03-24T11:56:09;10.30;;;3.45;;
3016;SDS011;1518;52.408;13.060;2023-03-24T11:59:05;11.55;;;2.95;;
3016;SDS011;1518;52.408;13.060;2023-03-24T12:02:03;11.88;;;3.60;;
3016;SDS011;1518;52.408;13.060;2023-03-24T12:05:02;9.68;;;4.10;;
3016;SDS011;1518;52.408;13.060;2023-03-24T12:11:31;7.60;;;3.10;;
3016;SDS011;1518;52.408;13.060;2023-03-24T12:14:29;11.40;;;3.67;;
3016;SDS011;1518;52.408;13.060;2023-03-24T12:17:27;10.10;;;3.25;;
3016;SDS011;1518;52.408;13.060;2023-03-24T12:20:22;10.07;;;3.33;;
3016;SDS011;1518;52.408;13.060;2023-03-24T12:23:17;17.38;;;4.00;;
3016;SDS011;1518;52.408;13.060;2023-03-24T12:26:14;10.45;;;2.85;;
3016;SDS011;1518;52.408;13.060;2023-03-24T12:29:13;7.57;;;3.03;;
3016;SDS011;1518;52.408;13.060;2023-03-24T12:35:36;7.05;;;2.67;;
3016;SDS011;1518;52.408;13.060;2023-03-24T12:38:35;9.70;;;3.20;;
3016;SDS011;1518;52.408;13.060;2023-03-24T12:41:38;7.35;;;2.90;;
3016;SDS011;1518;52.408;13.060;2023-03-24T12:44:42;5.35;;;2.15;;
3016;SDS011;1518;52.408;13.060;2023-03-24T12:47:46;10.23;;;3.42;;
3016;SDS011;1518;52.408;13.060;2023-03-24T12:50:47;9.48;;;2.97;;
3016;SDS011;1518;52.408;13.060;2023-03-24T12:53:47;10.07;;;2.83;;
3016;SDS011;1518;52.408;13.060;2023-03-24T12:56:43;6.85;;;2.58;;
3016;SDS011;1518;52.408;13.060;2023-03-24T12:59:36;6.57;;;2.78;;
3016;SDS011;1518;52.408;13.060;2023-03-24T13:02:28;6.32;;;3.38;;
3016;SDS011;1518;52.408;13.060;2023-03-24T13:05:22;6.63;;;2.83;;
3016;SDS011;1518;52.408;13.060;2023-03-24T13:08:17;10.00;;;3.03;;
3016;SDS011;1518;52.408;13.060;2023-03-24T13:11:15;9.65;;;3.60;;
3016;SDS011;1518;52.408;13.060;2023-03-24T13:14:20;6.05;;;2.70;;
3016;SDS011;1518;52.408;13.060;2023-03-24T13:17:12;4.68;;;3.13;;
3016;SDS011;1518;52.408;13.060;2023-03-24T13:20:04;6.20;;;2.28;;
3016;SDS011;1518;52.408;13.060;2023-03-24T13:23:01;8.05;;;2.30;;
3016;SDS011;1518;52.408;13.060;2023-03-24T13:25:59;5.90;;;2.92;;
3016;SDS011;1518;52.408;13.060;2023-03-24T13:28:58;6.70;;;2.33;;
3016;SDS011;1518;52.408;13.060;2023-03-24T13:31:58;4.65;;;2.58;;
3016;SDS011;1518;52.408;13.060;2023-03-24T13:34:52;6.43;;;2.53;;
3016;SDS011;1518;52.408;13.060;2023-03-24T13:37:45;4.75;;;1.80;;
3016;SDS011;1518;52.408;13.060;2023-03-24T13:40:38;3.80;;;1.60;;
3016;SDS011;1518;52.408;13.060;2023-03-24T13:43:28;7.30;;;2.08;;
3016;SDS011;1518;52.408;13.060;2023-03-24T13:46:17;4.28;;;1.77;;
3016;SDS011;1518;52.408;13.060;2023-03-24T13:49:07;6.90;;;2.17;;
3016;SDS011;1518;52.408;13.060;2023-03-24T13:52:01;25.88;;;3.63;;
3016;SDS011;1518;52.408;13.060;2023-03-24T13:54:51;16.15;;;3.10;;
3016;SDS011;1518;52.408;13.060;2023-03-24T13:57:49;48.60;;;6.53;;
3016;SDS011;1518;52.408;13.060;2023-03-24T14:01:03;19.90;;;3.35;;
3016;SDS011;1518;52.408;13.060;2023-03-24T14:07:22;8.27;;;2.15;;
3016;SDS011;1518;52.408;13.060;2023-03-24T14:13:37;6.25;;;1.52;;
3016;SDS011;1518;52.408;13.060;2023-03-24T14:16:35;4.57;;;1.77;;
3016;SDS011;1518;52.408;13.060;2023-03-24T14:19:30;6.85;;;2.17;;
3016;SDS011;1518;52.408;13.060;2023-03-24T14:22:24;5.28;;;1.80;;
3016;SDS011;1518;52.408;13.060;2023-03-24T14:25:23;2.28;;;1.65;;
3016;SDS011;1518;52.408;13.060;2023-03-24T14:28:19;3.20;;;2.28;;
3016;SDS011;1518;52.408;13.060;2023-03-24T14:34:17;7.78;;;2.33;;
3016;SDS011;1518;52.408;13.060;2023-03-24T14:37:12;5.72;;;2.58;;
3016;SDS011;1518;52.408;13.060;2023-03-24T14:40:01;5.50;;;1.73;;
3016;SDS011;1518;52.408;13.060;2023-03-24T14:42:53;3.95;;;1.48;;
3016;SDS011;1518;52.408;13.060;2023-03-24T14:45:59;3.33;;;2.28;;
3016;SDS011;1518;52.408;13.060;2023-03-24T14:48:51;3.35;;;1.85;;
3016;SDS011;1518;52.408;13.060;2023-03-24T14:51:43;3.33;;;1.55;;
3016;SDS011;1518;52.408;13.060;2023-03-24T14:54:37;2.70;;;1.45;;
3016;SDS011;1518;52.408;13.060;2023-03-24T14:57:33;4.28;;;1.40;;
3016;SDS011;1518;52.408;13.060;2023-03-24T15:00:26;3.70;;;1.83;;
3016;SDS011;1518;52.408;13.060;2023-03-24T15:03:20;1.90;;;1.42;;
3016;SDS011;1518;52.408;13.060;2023-03-24T15:06:16;4.90;;;1.88;;
3016;SDS011;1518;52.408;13.060;2023-03-24T15:09:07;4.25;;;1.75;;
3016;SDS011;1518;52.408;13.060;2023-03-24T15:11:57;2.85;;;1.50;;
3016;SDS011;1518;52.408;13.060;2023-03-24T15:14:46;3.55;;;1.95;;
3016;SDS011;1518;52.408;13.060;2023-03-24T15:17:34;4.45;;;2.25;;
3016;SDS011;1518;52.408;13.060;2023-03-24T15:20:24;5.30;;;1.80;;
3016;SDS011;1518;52.408;13.060;2023-03-24T15:23:16;1.75;;;1.50;;
3016;SDS011;1518;52.408;13.060;2023-03-24T15:26:09;3.17;;;1.58;;
3016;SDS011;1518;52.408;13.060;2023-03-24T15:29:00;3.80;;;1.60;;
3016;SDS011;1518;52.408;13.060;2023-03-24T15:31:49;3.90;;;1.60;;
3016;SDS011;1518;52.408;13.060;2023-03-24T15:34:38;3.45;;;1.85;;
3016;SDS011;1518;52.408;13.060;2023-03-24T15:37:31;3.58;;;1.85;;
3016;SDS011;1518;52.408;13.060;2023-03-24T15:40:32;3.53;;;1.98;;
3016;SDS011;1518;52.408;13.060;2023-03-24T15:43:22;3.92;;;1.73;;
3016;SDS011;1518;52.408;13.060;2023-03-24T15:46:17;6.18;;;1.98;;
3016;SDS011;1518;52.408;13.060;2023-03-24T15:49:13;4.53;;;1.80;;
3016;SDS011;1518;52.408;13.060;2023-03-24T15:55:16;2.83;;;1.75;;
3016;SDS011;1518;52.408;13.060;2023-03-24T15:58:20;4.95;;;2.00;;
3016;SDS011;1518;52.408;13.060;2023-03-24T16:01:10;3.85;;;2.15;;
3016;SDS011;1518;52.408;13.060;2023-03-24T16:04:00;3.90;;;1.88;;
3016;SDS011;1518;52.408;13.060;2023-03-24T16:06:51;3.85;;;1.80;;
3016;SDS011;1518;52.408;13.060;2023-03-24T16:09:43;2.78;;;1.85;;
3016;SDS011;1518;52.408;13.060;2023-03-24T16:12:33;2.85;;;2.28;;
3016;SDS011;1518;52.408;13.060;2023-03-24T16:15:23;7.95;;;1.80;;
3016;SDS011;1518;52.408;13.060;2023-03-24T16:18:13;5.85;;;2.65;;
3016;SDS011;1518;52.408;13.060;2023-03-24T16:21:07;3.63;;;2.15;;
3016;SDS011;1518;52.408;13.060;2023-03-24T16:23:58;2.47;;;1.95;;
3016;SDS011;1518;52.408;13.060;2023-03-24T16:26:46;2.65;;;1.52;;
3016;SDS011;1518;52.408;13.060;2023-03-24T16:29:35;5.68;;;1.90;;
3016;SDS011;1518;52.408;13.060;2023-03-24T16:32:25;1.90;;;1.80;;
3016;SDS011;1518;52.408;13.060;2023-03-24T16:35:13;5.75;;;2.50;;
3016;SDS011;1518;52.408;13.060;2023-03-24T16:38:01;2.83;;;1.65;;
3016;SDS011;1518;52.408;13.060;2023-03-24T16:40:49;5.78;;;2.00;;
3016;SDS011;1518;52.408;13.060;2023-03-24T16:43:39;3.50;;;1.67;;
3016;SDS011;1518;52.408;13.060;2023-03-24T16:46:29;3.55;;;1.98;;
3016;SDS011;1518;52.408;13.060;2023-03-24T16:49:20;3.72;;;1.70;;
3016;SDS011;1518;52.408;13.060;2023-03-24T16:52:10;6.85;;;2.30;;
3016;SDS011;1518;52.408;13.060;2023-03-24T16:54:58;4.28;;;1.90;;
3016;SDS011;1518;52.408;13.060;2023-03-24T16:57:47;4.35;;;1.83;;
3016;SDS011;1518;52.408;13.060;2023-03-24T17:00:35;2.63;;;2.00;;
3016;SDS011;1518;52.408;13.060;2023-03-24T17:03:23;3.30;;;1.85;;
3016;SDS011;1518;52.408;13.060;2023-03-24T17:06:16;4.22;;;1.90;;
3016;SDS011;1518;52.408;13.060;2023-03-24T17:09:04;4.78;;;1.80;;
3016;SDS011;1518;52.408;13.060;2023-03-24T17:11:54;1.73;;;1.60;;
3016;SDS011;1518;52.408;13.060;2023-03-24T17:14:43;4.03;;;1.85;;
3016;SDS011;1518;52.408;13.060;2023-03-24T17:17:31;6.80;;;1.65;;
3016;SDS011;1518;52.408;13.060;2023-03-24T17:20:20;2.40;;;1.60;;
3016;SDS011;1518;52.408;13.060;2023-03-24T17:23:12;3.47;;;1.98;;
3016;SDS011;1518;52.408;13.060;2023-03-24T17:26:03;3.67;;;2.10;;
3016;SDS011;1518;52.408;13.060;2023-03-24T17:28:52;4.70;;;2.38;;
3016;SDS011;1518;52.408;13.060;2023-03-24T17:31:40;2.65;;;1.88;;
3016;SDS011;1518;52.408;13.060;2023-03-24T17:34:29;3.40;;;1.92;;
3016;SDS011;1518;52.408;13.060;2023-03-24T17:37:17;3.70;;;3.08;;
3016;SDS011;1518;52.408;13.060;2023-03-24T17:40:07;4.75;;;2.67;;
3016;SDS011;1518;52.408;13.060;2023-03-24T17:42:57;4.13;;;2.17;;
3016;SDS011;1518;52.408;13.060;2023-03-24T17:45:45;5.53;;;2.70;;